createdAt,value
2023-02-26T00:00:26.357Z,0.75
2023-02-26T00:04:54.204Z,0.67
2023-02-26T00:09:22.126Z,0.70
2023-02-26T00:13:53.509Z,0.71
2023-02-26T00:18:30.627Z,0.67
2023-02-26T00:22:58.789Z,0.68
2023-02-26T00:27:26.703Z,0.64
2023-02-26T00:31:59.449Z,0.69
2023-02-26T00:36:27.728Z,0.64
2023-02-26T00:41:00.702Z,0.65
2023-02-26T00:45:28.574Z,0.57
2023-02-26T00:50:03.307Z,0.56
2023-02-26T00:54:30.145Z,0.60
2023-02-26T00:58:59.354Z,0.58
2023-02-26T01:03:27.738Z,0.66
2023-02-26T01:07:55.568Z,0.63
2023-02-26T01:12:24.141Z,0.70
2023-02-26T01:16:53.735Z,0.72
2023-02-26T01:24:55.926Z,0.79
2023-02-26T01:28:36.574Z,0.81
2023-02-26T01:32:45.474Z,0.78
2023-02-26T01:36:58.138Z,0.68
2023-02-26T01:41:00.294Z,0.73
2023-02-26T01:45:06.469Z,0.63
2023-02-26T01:49:14.096Z,0.69
2023-02-26T01:53:00.567Z,0.64
2023-02-26T01:56:55.430Z,0.57
2023-02-26T02:00:45.783Z,0.56
2023-02-26T02:04:33.814Z,0.58
2023-02-26T02:08:20.814Z,0.61
2023-02-26T02:12:09.852Z,0.56
2023-02-26T02:16:13.467Z,0.56
2023-02-26T02:19:59.100Z,0.51
2023-02-26T02:23:56.528Z,0.53
2023-02-26T02:28:01.921Z,0.52
2023-02-26T02:31:49.137Z,0.49
2023-02-26T02:35:49.285Z,0.44
2023-02-26T02:39:37.291Z,0.42
2023-02-26T02:43:32.050Z,0.43
2023-02-26T02:47:22.564Z,0.45
2023-02-26T02:51:12.197Z,0.38
2023-02-26T02:55:02.605Z,0.33
2023-02-26T02:58:59.055Z,0.32
2023-02-26T03:02:42.594Z,0.31
2023-02-26T03:06:19.601Z,0.25
2023-02-26T03:10:08.566Z,0.26
2023-02-26T03:13:58.991Z,0.20
2023-02-26T03:18:01.853Z,0.21
2023-02-26T03:21:58.296Z,0.15
2023-02-26T03:25:49.205Z,0.09
2023-02-26T03:29:42.680Z,0.11
2023-02-26T03:33:32.798Z,0.10
2023-02-26T03:37:20.730Z,0.09
2023-02-26T03:41:11.296Z,0.10
2023-02-26T03:44:59.221Z,0.06
2023-02-26T03:48:40.198Z,0.09
2023-02-26T03:52:22.253Z,0.06
2023-02-26T03:56:15.619Z,0.05
2023-02-26T04:00:01.768Z,0.09
2023-02-26T04:03:50.183Z,-0.02
2023-02-26T04:07:38.087Z,0.01
2023-02-26T04:11:28.862Z,0.00
2023-02-26T04:15:17.341Z,-0.00
2023-02-26T04:19:05.196Z,0.06
2023-02-26T04:22:53.543Z,0.12
2023-02-26T04:26:41.210Z,0.07
2023-02-26T04:30:29.341Z,0.05
2023-02-26T04:34:09.832Z,-0.01
2023-02-26T04:37:57.812Z,0.04
2023-02-26T04:41:45.534Z,0.03
2023-02-26T04:45:33.363Z,0.03
2023-02-26T04:49:14.271Z,0.05
2023-02-26T04:52:55.148Z,0.03
2023-02-26T04:56:42.973Z,0.05
2023-02-26T05:00:30.755Z,0.05
2023-02-26T05:04:18.381Z,0.02
2023-02-26T05:08:00.194Z,0.04
2023-02-26T05:11:47.975Z,0.09
2023-02-26T05:15:28.298Z,-0.00
2023-02-26T05:19:01.327Z,0.12
2023-02-26T05:22:49.153Z,0.11
2023-02-26T05:26:36.887Z,0.30
2023-02-26T05:30:24.978Z,0.30
2023-02-26T05:34:07.068Z,0.38
2023-02-26T05:37:54.035Z,0.40
2023-02-26T05:41:35.242Z,0.42
2023-02-26T05:45:24.849Z,0.56
2023-02-26T05:49:12.951Z,0.53
2023-02-26T05:53:01.110Z,0.66
2023-02-26T05:56:48.970Z,0.66
2023-02-26T06:04:33.461Z,0.75
2023-02-26T06:08:22.564Z,0.81
2023-02-26T06:12:10.318Z,0.96
2023-02-26T06:15:57.991Z,0.83
2023-02-26T06:19:46.057Z,0.90
2023-02-26T06:23:34.118Z,0.92
2023-02-26T06:27:15.846Z,0.83
2023-02-26T06:31:03.077Z,0.87
2023-02-26T06:34:53.661Z,0.90
2023-02-26T06:38:42.208Z,0.96
2023-02-26T06:42:30.136Z,0.96
2023-02-26T06:46:18.026Z,1.08
2023-02-26T06:50:10.086Z,1.09
2023-02-26T06:53:58.071Z,1.32
2023-02-26T06:57:45.751Z,1.39
2023-02-26T07:01:52.861Z,1.40
2023-02-26T07:05:40.551Z,1.41
2023-02-26T07:09:26.481Z,1.32
2023-02-26T07:13:16.817Z,1.45
2023-02-26T07:17:25.388Z,1.41
2023-02-26T07:21:22.318Z,1.63
2023-02-26T07:25:14.103Z,1.79
2023-02-26T07:29:06.040Z,1.82
2023-02-26T07:33:03.888Z,1.85
2023-02-26T07:36:55.772Z,1.84
2023-02-26T07:40:55.718Z,1.60
2023-02-26T07:48:54.351Z,1.36
2023-02-26T07:53:22.117Z,1.43
2023-02-26T07:57:47.252Z,1.61
2023-02-26T08:02:15.717Z,1.75
2023-02-26T08:06:44.648Z,1.67
2023-02-26T08:14:47.648Z,1.70
2023-02-26T08:19:15.768Z,1.62
2023-02-26T08:23:43.739Z,1.92
2023-02-26T08:28:11.987Z,2.09
2023-02-26T08:32:40.260Z,2.26
2023-02-26T08:37:08.036Z,2.36
2023-02-26T08:41:50.842Z,2.49
2023-02-26T08:46:19.009Z,2.34
2023-02-26T08:50:29.221Z,2.41
2023-02-26T08:54:57.759Z,2.35
2023-02-26T08:59:25.963Z,2.44
2023-02-26T09:03:53.918Z,2.43
2023-02-26T09:08:22.464Z,2.58
2023-02-26T09:12:50.162Z,2.34
2023-02-26T09:27:40.655Z,2.77
2023-02-26T09:31:33.046Z,2.72
2023-02-26T09:35:27.000Z,2.86
2023-02-26T09:39:38.239Z,2.88
2023-02-26T09:43:31.771Z,3.01
2023-02-26T09:47:55.197Z,3.04
2023-02-26T09:51:45.937Z,2.82
2023-02-26T09:55:37.994Z,3.07
2023-02-26T10:03:43.745Z,3.52
2023-02-26T10:09:10.486Z,3.45
2023-02-26T10:10:53.960Z,3.41
2023-02-26T10:14:42.295Z,3.31
2023-02-26T10:18:52.263Z,3.42
2023-02-26T10:22:41.561Z,3.65
2023-02-26T10:26:42.830Z,3.64
2023-02-26T10:30:41.080Z,3.69
2023-02-26T10:34:34.929Z,3.75
2023-02-26T10:38:49.927Z,3.91
2023-02-26T10:43:05.743Z,3.81
2023-02-26T10:47:32.681Z,3.70
2023-02-26T10:52:05.640Z,3.79
2023-02-26T10:56:10.175Z,3.76
2023-02-26T11:00:02.892Z,3.95
2023-02-26T11:08:26.291Z,3.47
2023-02-26T11:16:45.635Z,3.45
2023-02-26T11:21:17.668Z,3.68
2023-02-26T11:25:10.399Z,3.67
2023-02-26T11:29:10.953Z,3.55
2023-02-26T11:32:51.664Z,3.64
2023-02-26T11:36:45.928Z,3.68
2023-02-26T11:40:41.090Z,3.58
2023-02-26T11:44:30.250Z,3.83
2023-02-26T11:52:21.029Z,4.39
2023-02-26T11:56:30.433Z,4.70
2023-02-26T11:59:56.806Z,4.54
2023-02-26T12:04:11.580Z,4.60
2023-02-26T12:08:01.230Z,4.60
2023-02-26T12:11:57.726Z,4.10
2023-02-26T12:16:06.632Z,3.68
2023-02-26T12:20:22.898Z,3.57
2023-02-26T12:23:55.256Z,3.62
2023-02-26T12:28:16.390Z,3.79
2023-02-26T12:31:41.457Z,3.84
2023-02-26T12:35:18.060Z,3.82
2023-02-26T12:39:47.950Z,3.93
2023-02-26T12:43:48.870Z,3.94
2023-02-26T12:52:10.141Z,3.98
2023-02-26T12:55:48.004Z,4.06
2023-02-26T12:59:42.728Z,4.04
2023-02-26T13:07:59.122Z,4.16
2023-02-26T13:11:28.855Z,4.12
2023-02-26T13:15:46.728Z,4.22
2023-02-26T13:20:06.093Z,3.73
2023-02-26T13:24:04.456Z,3.46
2023-02-26T13:27:54.500Z,3.54
2023-02-26T13:31:46.842Z,3.78
2023-02-26T13:35:23.700Z,3.86
2023-02-26T13:38:34.605Z,4.07
2023-02-26T13:42:48.914Z,4.15
2023-02-26T13:46:35.776Z,4.38
2023-02-26T13:50:38.264Z,4.39
2023-02-26T13:54:42.965Z,4.48
2023-02-26T13:58:34.517Z,4.27
2023-02-26T14:11:00.581Z,3.89
2023-02-26T14:15:17.310Z,3.88
2023-02-26T14:19:20.345Z,3.99
2023-02-26T14:23:15.731Z,4.11
2023-02-26T14:27:05.164Z,4.20
2023-02-26T14:30:58.333Z,4.31
2023-02-26T14:34:50.043Z,4.47
2023-02-26T14:38:09.605Z,4.84
2023-02-26T14:42:17.702Z,4.51
2023-02-26T14:46:14.398Z,4.39
2023-02-26T14:50:06.259Z,4.13
2023-02-26T14:54:08.301Z,4.01
2023-02-26T14:58:12.405Z,4.03
2023-02-26T15:06:35.099Z,3.93
2023-02-26T15:17:27.221Z,4.08
2023-02-26T15:21:04.509Z,4.02
2023-02-26T15:25:06.331Z,4.24
2023-02-26T15:29:41.237Z,4.40
2023-02-26T15:35:30.516Z,4.25
2023-02-26T15:40:01.478Z,3.90
2023-02-26T15:44:34.551Z,3.79
2023-02-26T15:49:13.869Z,3.78
2023-02-26T15:53:48.911Z,3.78
2023-02-26T15:57:58.814Z,3.85
2023-02-26T16:02:03.063Z,3.72
2023-02-26T16:06:07.414Z,3.61
2023-02-26T16:10:35.300Z,3.58
2023-02-26T16:14:37.562Z,3.60
2023-02-26T16:18:23.925Z,3.53
2023-02-26T16:21:47.343Z,3.54
2023-02-26T16:25:44.583Z,3.49
2023-02-26T16:29:35.383Z,3.43
2023-02-26T16:33:25.940Z,3.39
2023-02-26T16:37:18.529Z,3.32
2023-02-26T16:41:26.862Z,3.34
2023-02-26T16:45:27.657Z,3.36
2023-02-26T16:49:14.760Z,3.28
2023-02-26T16:52:29.857Z,3.16
2023-02-26T16:57:02.512Z,2.90
2023-02-26T17:01:42.586Z,2.79
2023-02-26T17:06:17.378Z,2.60
2023-02-26T17:10:38.325Z,2.59
2023-02-26T17:15:13.094Z,2.52
2023-02-26T17:27:08.621Z,2.17
2023-02-26T17:30:41.428Z,2.16
2023-02-26T17:34:33.380Z,2.10
2023-02-26T17:38:20.987Z,1.89
2023-02-26T17:42:05.811Z,2.03
2023-02-26T17:45:54.588Z,1.77
2023-02-26T17:49:43.102Z,1.72
2023-02-26T17:53:34.787Z,1.58
2023-02-26T17:57:26.762Z,1.60
2023-02-26T18:01:15.182Z,1.57
2023-02-26T18:05:04.494Z,1.52
2023-02-26T18:08:52.595Z,1.51
2023-02-26T18:12:42.177Z,1.38
2023-02-26T18:16:12.084Z,1.42
2023-02-26T18:19:49.958Z,1.35
2023-02-26T18:24:21.152Z,1.29
2023-02-26T18:28:35.215Z,1.23
2023-02-26T18:37:17.198Z,1.07
2023-02-26T18:41:48.439Z,1.06
2023-02-26T18:45:53.301Z,1.05
2023-02-26T18:54:40.920Z,0.95
2023-02-26T18:58:19.699Z,0.89
2023-02-26T19:02:08.297Z,1.14
2023-02-26T19:05:46.779Z,1.18
2023-02-26T19:09:16.679Z,1.15
2023-02-26T19:12:54.391Z,1.18
2023-02-26T19:16:37.594Z,1.19
2023-02-26T19:20:16.127Z,1.19
2023-02-26T19:23:47.006Z,1.23
2023-02-26T19:27:18.790Z,1.35
2023-02-26T19:30:46.187Z,1.44
2023-02-26T19:34:15.850Z,1.46
2023-02-26T19:37:39.628Z,1.51
2023-02-26T19:41:27.626Z,1.55
2023-02-26T19:45:08.718Z,1.48
2023-02-26T19:48:39.707Z,1.37
2023-02-26T19:52:19.787Z,1.34
2023-02-26T19:56:06.812Z,1.31
2023-02-26T19:59:52.140Z,1.28
2023-02-26T20:03:36.978Z,1.23
2023-02-26T20:06:50.093Z,1.27
2023-02-26T20:10:23.171Z,1.35
2023-02-26T20:13:36.458Z,1.38
2023-02-26T20:17:14.856Z,1.39
2023-02-26T20:20:56.419Z,1.42
2023-02-26T20:24:45.254Z,1.44
2023-02-26T20:28:26.770Z,1.45
2023-02-26T20:31:51.302Z,1.49
2023-02-26T20:35:33.406Z,1.48
2023-02-26T20:39:22.478Z,1.49
2023-02-26T20:43:04.168Z,1.48
2023-02-26T20:46:19.902Z,1.53
2023-02-26T20:50:08.432Z,1.51
2023-02-26T20:54:08.596Z,1.50
2023-02-26T20:57:57.051Z,1.52
2023-02-26T21:01:36.282Z,1.52
2023-02-26T21:06:12.878Z,1.57
2023-02-26T21:09:27.994Z,1.52
2023-02-26T21:13:18.337Z,1.56
2023-02-26T21:17:06.262Z,1.55
2023-02-26T21:20:39.002Z,1.56
2023-02-26T21:24:27.537Z,1.46
2023-02-26T21:27:53.374Z,1.53
2023-02-26T21:31:42.452Z,1.40
2023-02-26T21:35:33.105Z,1.43
2023-02-26T21:39:21.546Z,1.44
2023-02-26T21:43:10.762Z,1.43
2023-02-26T21:46:59.056Z,1.47
2023-02-26T21:50:40.337Z,1.36
2023-02-26T21:54:28.307Z,1.38
2023-02-26T21:58:16.107Z,1.47
2023-02-26T22:01:48.479Z,1.52
2023-02-26T22:05:24.604Z,1.53
2023-02-26T22:09:11.901Z,1.52
2023-02-26T22:12:52.232Z,1.48
2023-02-26T22:16:40.014Z,1.47
2023-02-26T22:20:28.057Z,1.40
2023-02-26T22:24:15.752Z,1.39
2023-02-26T22:27:56.590Z,1.32
2023-02-26T22:31:37.016Z,1.29
2023-02-26T22:35:06.212Z,1.27
2023-02-26T22:38:54.082Z,1.27
2023-02-26T22:42:35.358Z,1.32
2023-02-26T22:46:15.644Z,1.27
2023-02-26T22:49:55.250Z,1.29
2023-02-26T22:53:43.389Z,1.23
2023-02-26T22:57:16.700Z,1.21
2023-02-26T23:01:05.308Z,1.11
2023-02-26T23:04:45.549Z,1.13
2023-02-26T23:08:22.958Z,1.16
2023-02-26T23:11:54.777Z,1.20
2023-02-26T23:15:42.538Z,1.22
2023-02-26T23:19:30.285Z,1.31
2023-02-26T23:23:18.265Z,1.18
2023-02-26T23:26:51.181Z,1.20
2023-02-26T23:30:22.290Z,1.15
2023-02-26T23:34:10.003Z,1.18
2023-02-26T23:37:39.714Z,1.19
2023-02-26T23:41:18.256Z,1.15
2023-02-26T23:44:58.521Z,1.09
2023-02-26T23:48:30.708Z,0.93
2023-02-26T23:52:18.681Z,0.98
2023-02-26T23:55:50.943Z,0.88
2023-02-26T23:59:37.297Z,0.79
